Time;durP1;ratioP1;P1;durP2;ratioP2;P2;SDS_P1;SDS_P2;PMS_P1;PMS_P2;Temp;Humidity;BMP_temperature;BMP_pressure;BME280_temperature;BME280_humidity;BME280_pressure;Samples;Min_cycle;Max_cycle;Signal;HPM_P1;HPM_P2
2023/04/17 00:01:48;;;;;;;;;2.00;2.00;;;;;12.87;72.50;102238.69;5049451;28;45526;-74
2023/04/17 00:04:13;;;;;;;;;3.33;3.33;;;;;12.87;72.63;102244.00;5038573;28;46636;-74
2023/04/17 00:06:42;;;;;;;;;2.00;2.00;;;;;12.84;72.78;102246.59;5035822;28;45268;-78
2023/04/17 00:09:07;;;;;;;;;2.67;2.00;;;;;12.81;72.83;102239.44;5029198;28;45437;-76
2023/04/17 00:11:33;;;;;;;;;4.00;2.33;;;;;12.79;73.00;102232.34;5039461;28;45511;-75
2023/04/17 00:13:58;;;;;;;;;2.00;2.00;;;;;12.77;73.25;102231.38;5041460;28;70963;-74
2023/04/17 00:16:25;;;;;;;;;2.33;2.33;;;;;12.72;73.13;102233.91;5039202;28;55649;-75
2023/04/17 00:18:51;;;;;;;;;3.67;1.00;;;;;12.70;73.96;102233.00;5039040;28;45542;-78
2023/04/17 00:21:16;;;;;;;;;3.00;3.00;;;;;12.66;73.76;102231.13;5037084;28;45365;-75
2023/04/17 00:23:42;;;;;;;;;2.00;2.00;;;;;12.61;73.94;102224.81;5029470;28;68627;-76
2023/04/17 00:26:07;;;;;;;;;2.00;2.00;;;;;12.60;74.40;102225.66;5038178;28;46262;-78
2023/04/17 00:28:32;;;;;;;;;3.33;2.33;;;;;12.56;74.29;102215.84;5038771;28;51119;-74
2023/04/17 00:30:58;;;;;;;;;4.00;2.00;;;;;12.52;74.38;102221.94;5038351;28;45317;-74
2023/04/17 00:33:23;;;;;;;;;3.00;2.00;;;;;12.47;74.75;102216.53;5032532;28;45455;-74
2023/04/17 00:35:49;;;;;;;;;3.00;3.00;;;;;12.47;75.03;102213.00;5046448;28;45400;-75
2023/04/17 00:38:14;;;;;;;;;4.25;3.00;;;;;12.44;74.95;102216.44;5048007;28;45587;-75
2023/04/17 00:40:40;;;;;;;;;4.33;3.33;;;;;12.42;74.93;102214.63;5042630;28;45444;-76
2023/04/17 00:43:06;;;;;;;;;5.00;1.33;;;;;12.40;75.11;102219.84;5041670;28;47507;-77
2023/04/17 00:45:31;;;;;;;;;2.00;2.00;;;;;12.37;75.16;102211.84;5019212;28;45492;-74
2023/04/17 00:47:58;;;;;;;;;2.67;1.00;;;;;12.36;75.02;102210.06;5034476;28;61697;-78
2023/04/17 00:50:25;;;;;;;;;3.00;3.00;;;;;12.34;75.61;102209.09;5041013;28;45513;-74
2023/04/17 00:52:51;;;;;;;;;2.00;2.00;;;;;12.32;75.93;102208.19;5021162;28;46611;-74
2023/04/17 00:55:16;;;;;;;;;4.00;4.00;;;;;12.28;75.73;102208.97;5035849;28;45347;-78
2023/04/17 00:57:42;;;;;;;;;4.33;3.00;;;;;12.28;75.95;102208.97;5017924;28;45621;-75
2023/04/17 01:00:09;;;;;;;;;4.50;3.00;;;;;12.27;76.21;102212.47;5038496;28;45463;-75
2023/04/17 01:02:34;;;;;;;;;2.75;2.75;;;;;12.23;76.48;102211.47;5037851;28;45868;-74
2023/04/17 01:05:00;;;;;;;;;2.00;2.00;;;;;12.20;76.57;102202.59;5037193;28;46459;-77
2023/04/17 01:07:26;;;;;;;;;2.25;2.25;;;;;12.15;76.98;102205.09;5037305;28;45444;-74
2023/04/17 01:09:52;;;;;;;;;2.25;2.25;;;;;12.14;77.46;102205.03;5017032;28;45576;-74
2023/04/17 01:12:22;;;;;;;;;3.00;3.00;;;;;12.12;77.37;102202.34;5037404;28;45693;-76
2023/04/17 01:14:52;;;;;;;;;2.00;2.00;;;;;12.08;77.68;102189.88;5037755;28;45501;-74
2023/04/17 01:17:20;;;;;;;;;2.33;2.00;;;;;12.06;77.72;102192.50;5034640;28;45365;-75
2023/04/17 01:19:47;;;;;;;;;7.00;4.00;;;;;12.06;77.78;102196.91;5043621;28;45568;-75
2023/04/17 01:22:15;;;;;;;;;3.00;3.00;;;;;12.03;78.13;102188.88;5016571;28;45577;-74
2023/04/17 01:24:40;;;;;;;;;4.00;3.50;;;;;12.02;78.35;102192.38;5033953;28;47331;-75
2023/04/17 01:27:05;;;;;;;;;4.75;2.00;;;;;12.01;78.32;102194.13;5037909;28;45719;-74
2023/04/17 01:29:31;;;;;;;;;5.75;3.00;;;;;12.03;78.55;102189.75;5046026;28;45436;-74
2023/04/17 01:31:56;;;;;;;;;2.25;2.25;;;;;12.03;78.55;102187.13;5034761;28;45659;-76
2023/04/17 01:34:22;;;;;;;;;8.75;3.00;;;;;12.02;78.65;102195.91;5036895;28;45478;-74
2023/04/17 01:36:48;;;;;;;;;4.00;4.00;;;;;11.99;78.86;102193.22;5035914;28;46975;-75
2023/04/17 01:39:13;;;;;;;;;4.75;4.00;;;;;11.97;78.94;102197.53;5038712;28;45536;-74
2023/04/17 01:41:38;;;;;;;;;4.25;3.50;;;;;11.96;79.00;102195.75;5042290;28;57753;-74
2023/04/17 01:44:04;;;;;;;;;4.50;3.00;;;;;11.97;79.10;102197.53;5033300;28;58318;-76
2023/04/17 01:46:29;;;;;;;;;6.00;4.00;;;;;11.93;79.38;102190.41;5036030;28;45396;-74
2023/04/17 01:48:55;;;;;;;;;5.00;5.00;;;;;11.93;79.46;102201.00;5033588;28;56566;-74
2023/04/17 01:51:20;;;;;;;;;8.00;4.00;;;;;11.92;79.80;102200.91;5020929;28;68065;-77
2023/04/17 01:53:45;;;;;;;;;7.75;2.00;;;;;11.87;79.96;102198.16;5027507;28;67041;-75
2023/04/17 01:56:12;;;;;;;;;4.50;4.50;;;;;11.86;80.39;102201.66;5052367;28;45404;-74
2023/04/17 01:58:38;;;;;;;;;8.25;2.75;;;;;11.86;80.66;102198.13;5036191;28;46315;-74
2023/04/17 02:01:03;;;;;;;;;5.25;3.00;;;;;11.82;80.63;102202.41;5042210;28;46388;-74
2023/04/17 02:03:30;;;;;;;;;6.75;4.75;;;;;11.80;80.94;102198.81;5037467;28;45282;-76
2023/04/17 02:05:55;;;;;;;;;2.50;2.50;;;;;11.78;81.33;102193.47;5037937;28;45464;-75
2023/04/17 02:08:21;;;;;;;;;5.75;4.00;;;;;11.74;81.71;102196.00;5043815;28;45344;-76
2023/04/17 02:10:46;;;;;;;;;4.00;4.00;;;;;11.70;81.90;102196.75;5040587;28;45632;-74
2023/04/17 02:13:11;;;;;;;;;3.25;3.25;;;;;11.65;81.94;102193.97;5054876;28;63680;-76
2023/04/17 02:15:37;;;;;;;;;4.00;2.75;;;;;11.63;82.16;102193.03;5044432;28;46451;-75
2023/04/17 02:18:05;;;;;;;;;2.50;2.50;;;;;11.60;82.40;102200.00;5038380;28;45447;-74
2023/04/17 02:20:31;;;;;;;;;6.75;4.00;;;;;11.54;82.60;102196.31;5038858;28;47249;-76
2023/04/17 02:22:57;;;;;;;;;6.00;3.00;;;;;11.53;83.09;102194.53;5037314;28;45285;-74
2023/04/17 02:25:22;;;;;;;;;6.00;3.25;;;;;11.50;83.21;102194.47;5045910;28;45435;-73
2023/04/17 02:27:47;;;;;;;;;7.00;4.25;;;;;11.46;83.24;102192.56;5042366;28;45452;-74
2023/04/17 02:30:13;;;;;;;;;3.00;3.00;;;;;11.46;83.93;102197.84;5036876;28;68034;-74
2023/04/17 02:32:38;;;;;;;;;4.50;3.75;;;;;11.42;83.72;102195.06;5037277;28;45559;-74
2023/04/17 02:35:05;;;;;;;;;4.75;3.00;;;;;11.40;83.79;102187.09;5044287;28;45264;-74
2023/04/17 02:37:30;;;;;;;;;4.00;3.50;;;;;11.37;84.06;102191.38;5044109;28;45485;-77
2023/04/17 02:39:55;;;;;;;;;7.00;3.00;;;;;11.34;84.44;102186.88;5027959;28;47401;-74
2023/04/17 02:42:20;;;;;;;;;8.75;4.50;;;;;11.32;84.78;102191.25;5030441;28;65766;-77
2023/04/17 02:44:46;;;;;;;;;3.75;3.75;;;;;11.29;85.04;102188.50;5037471;28;57722;-74
2023/04/17 02:47:11;;;;;;;;;3.00;3.00;;;;;11.26;85.10;102189.31;5050792;28;45451;-74
2023/04/17 02:49:37;;;;;;;;;3.75;3.00;;;;;11.26;85.32;102191.97;5036677;28;55026;-74
2023/04/17 02:52:03;;;;;;;;;5.75;4.00;;;;;11.22;85.05;102192.72;5042914;28;45438;-74
2023/04/17 02:54:28;;;;;;;;;4.25;4.25;;;;;11.20;86.04;102190.91;5037386;28;45371;-74
2023/04/17 02:56:57;;;;;;;;;3.75;3.75;;;;;11.20;86.07;102189.16;5038544;28;57227;-73
2023/04/17 02:59:23;;;;;;;;;3.00;3.00;;;;;11.18;86.28;102200.50;5041922;28;47214;-76
2023/04/17 03:01:49;;;;;;;;;3.75;3.75;;;;;11.17;86.70;102186.41;5019853;28;45376;-76
2023/04/17 03:04:15;;;;;;;;;6.75;4.00;;;;;11.14;86.67;102182.78;5036912;28;45458;-76
2023/04/17 03:06:40;;;;;;;;;3.25;2.75;;;;;11.12;86.98;102188.00;5030503;28;45515;-74
2023/04/17 03:09:06;;;;;;;;;4.50;3.00;;;;;11.12;87.27;102188.00;5035855;28;46828;-76
2023/04/17 03:11:31;;;;;;;;;7.25;5.00;;;;;11.11;87.68;102182.69;5017313;28;45430;-78
2023/04/17 03:13:56;;;;;;;;;7.75;3.50;;;;;11.11;88.00;102185.31;5034631;28;61747;-74
2023/04/17 03:16:22;;;;;;;;;8.50;5.25;;;;;11.12;88.41;102185.34;5034613;28;45413;-75
2023/04/17 03:18:47;;;;;;;;;8.25;5.25;;;;;11.14;88.63;102185.44;5036366;28;51756;-77
2023/04/17 03:21:12;;;;;;;;;6.50;6.50;;;;;11.13;88.73;102180.97;5039811;28;68157;-73
2023/04/17 03:23:38;;;;;;;;;4.50;4.50;;;;;11.11;88.60;102180.94;5035582;28;61926;-75
2023/04/17 03:26:03;;;;;;;;;7.25;4.00;;;;;11.09;89.00;102184.38;5037711;28;56653;-74
2023/04/17 03:28:28;;;;;;;;;3.25;3.25;;;;;11.07;89.20;102180.78;5042863;28;45652;-76
2023/04/17 03:30:56;;;;;;;;;7.00;5.25;;;;;11.05;89.46;102177.22;5034957;28;66322;-75
2023/04/17 03:33:22;;;;;;;;;9.50;3.50;;;;;11.05;89.80;102183.38;5043200;28;45928;-74
2023/04/17 03:35:47;;;;;;;;;6.25;4.00;;;;;11.05;90.02;102182.50;5036589;28;60123;-74
2023/04/17 03:38:12;;;;;;;;;4.00;4.00;;;;;11.04;90.07;102188.63;5035965;28;69411;-74
2023/04/17 03:40:38;;;;;;;;;9.75;4.25;;;;;11.03;90.67;102190.38;5034380;28;65757;-76
2023/04/17 03:43:03;;;;;;;;;5.25;4.25;;;;;11.05;91.27;102185.13;5041118;28;60176;-77
2023/04/17 03:45:28;;;;;;;;;8.00;4.50;;;;;11.11;91.36;102188.84;5036880;28;45307;-74
2023/04/17 03:47:54;;;;;;;;;7.25;6.50;;;;;11.15;92.14;102184.56;5037680;28;57658;-75
2023/04/17 03:50:19;;;;;;;;;5.75;5.00;;;;;11.21;92.28;102192.69;5032651;28;66863;-74
2023/04/17 03:52:45;;;;;;;;;7.00;6.75;;;;;11.26;92.61;102199.91;5032662;28;63478;-75
2023/04/17 03:55:11;;;;;;;;;5.50;4.25;;;;;11.31;92.35;102185.94;5040692;28;45463;-76
2023/04/17 03:57:36;;;;;;;;;15.75;8.00;;;;;11.35;92.88;102196.66;5035739;28;46364;-75
2023/04/17 04:00:01;;;;;;;;;4.75;4.75;;;;;11.39;93.22;102192.31;5027351;28;65060;-75
2023/04/17 04:02:27;;;;;;;;;9.25;8.25;;;;;11.45;93.37;102196.06;5037974;28;45450;-74
2023/04/17 04:04:52;;;;;;;;;11.75;7.75;;;;;11.51;93.46;102209.47;5044455;28;56170;-77
2023/04/17 04:07:18;;;;;;;;;12.00;9.25;;;;;11.53;93.44;102205.09;5041328;28;48602;-76
2023/04/17 04:09:43;;;;;;;;;14.00;10.50;;;;;11.57;93.49;102200.81;5036772;28;45286;-74
2023/04/17 04:12:09;;;;;;;;;11.25;8.00;;;;;11.55;93.68;102197.19;5039574;28;62081;-77
2023/04/17 04:14:36;;;;;;;;;8.75;8.75;;;;;11.59;93.74;102203.50;5034979;28;45664;-76
2023/04/17 04:17:01;;;;;;;;;10.75;9.00;;;;;11.62;93.71;102198.31;5035322;28;46582;-76
2023/04/17 04:19:27;;;;;;;;;9.00;7.50;;;;;11.64;94.19;102196.59;5034499;28;66922;-74
2023/04/17 04:21:52;;;;;;;;;10.75;8.50;;;;;11.64;94.00;102196.59;5033207;28;64348;-74
2023/04/17 04:24:19;;;;;;;;;9.00;6.75;;;;;11.64;94.51;102202.78;5032230;28;45475;-74
2023/04/17 04:26:46;;;;;;;;;7.75;7.75;;;;;11.65;94.49;102201.91;5048740;28;46429;-74
2023/04/17 04:29:12;;;;;;;;;7.75;5.75;;;;;11.68;94.56;102201.13;5038556;28;45652;-76
2023/04/17 04:31:37;;;;;;;;;13.00;9.25;;;;;11.69;94.93;102208.19;5035506;28;45510;-75
2023/04/17 04:34:04;;;;;;;;;9.25;9.00;;;;;11.71;95.09;102196.78;5029898;28;45512;-76
2023/04/17 04:36:30;;;;;;;;;15.25;10.25;;;;;11.71;95.19;102212.66;5037727;28;45855;-74
2023/04/17 04:38:58;;;;;;;;;12.50;9.00;;;;;11.71;95.27;102212.66;5032650;28;57161;-75
2023/04/17 04:41:24;;;;;;;;;9.75;8.00;;;;;11.70;95.36;102210.88;5035438;28;45419;-74
2023/04/17 04:43:49;;;;;;;;;15.25;12.75;;;;;11.71;95.64;102219.69;5030715;28;45305;-74
2023/04/17 04:46:15;;;;;;;;;10.00;8.25;;;;;11.70;95.82;102213.53;5033628;28;60780;-74
2023/04/17 04:48:40;;;;;;;;;13.75;10.25;;;;;11.70;96.41;102221.47;5043899;28;45340;-75
2023/04/17 04:51:05;;;;;;;;;13.00;10.00;;;;;11.73;96.37;102218.03;5034556;28;45334;-75
2023/04/17 04:53:31;;;;;;;;;15.75;11.75;;;;;11.73;96.58;102216.28;5038589;28;45368;-75
2023/04/17 04:55:56;;;;;;;;;10.00;10.00;;;;;11.72;97.02;102216.22;5044585;28;45961;-74
2023/04/17 04:58:22;;;;;;;;;16.00;11.75;;;;;11.70;97.36;102215.28;5043866;28;45441;-76
2023/04/17 05:00:48;;;;;;;;;17.25;12.25;;;;;11.68;97.45;102207.31;5045750;28;45386;-74
2023/04/17 05:03:13;;;;;;;;;15.25;14.00;;;;;11.64;98.15;102212.47;5036024;28;61484;-75
2023/04/17 05:05:39;;;;;;;;;14.25;11.75;;;;;11.66;98.27;102221.31;5033551;28;69526;-74
2023/04/17 05:08:05;;;;;;;;;19.75;14.50;;;;;11.62;98.35;102217.72;5040925;28;45523;-77
2023/04/17 05:10:30;;;;;;;;;19.50;13.25;;;;;11.64;98.67;102225.69;5039320;28;45486;-75
2023/04/17 05:12:56;;;;;;;;;14.00;13.75;;;;;11.64;98.80;102223.03;5042563;28;53682;-74
2023/04/17 05:15:21;;;;;;;;;15.50;12.75;;;;;11.65;99.11;102224.81;5044928;28;71215;-75
2023/04/17 05:17:46;;;;;;;;;16.00;12.75;;;;;11.67;99.85;102220.50;5048284;28;45502;-73
2023/04/17 05:20:12;;;;;;;;;21.75;18.00;;;;;11.70;100.00;102217.91;5040972;28;45418;-73
2023/04/17 05:22:37;;;;;;;;;21.50;16.75;;;;;11.73;100.00;102218.03;5038641;28;48245;-72
2023/04/17 05:25:03;;;;;;;;;23.25;17.00;;;;;11.76;100.00;102223.38;5040379;28;46448;-75
2023/04/17 05:27:29;;;;;;;;;19.00;15.25;;;;;11.81;100.00;102227.06;5048535;28;45424;-74
2023/04/17 05:29:54;;;;;;;;;25.25;17.00;;;;;11.84;100.00;102226.28;5018650;28;45446;-77
2023/04/17 05:32:20;;;;;;;;;21.00;15.25;;;;;11.86;100.00;102230.75;5037099;28;62562;-73
2023/04/17 05:34:45;;;;;;;;;16.00;16.00;;;;;11.89;100.00;102225.56;5043201;28;45475;-76
2023/04/17 05:37:11;;;;;;;;;17.50;15.50;;;;;11.93;100.00;102231.81;5047525;28;66961;-72
2023/04/17 05:39:37;;;;;;;;;23.00;17.50;;;;;11.92;100.00;102225.63;5041519;28;45475;-76
2023/04/17 05:42:02;;;;;;;;;21.75;17.25;;;;;11.95;100.00;102231.03;5039651;28;45605;-77
2023/04/17 05:44:28;;;;;;;;;18.50;15.75;;;;;12.00;100.00;102236.47;5040947;28;45428;-75
2023/04/17 05:46:56;;;;;;;;;24.25;17.75;;;;;12.03;100.00;102228.56;5020548;28;45349;-77
2023/04/17 05:49:21;;;;;;;;;18.50;18.50;;;;;12.07;100.00;102227.81;5044413;28;45474;-72
2023/04/17 05:51:46;;;;;;;;;22.50;18.00;;;;;12.12;100.00;102227.94;5034826;28;45474;-76
2023/04/17 05:54:12;;;;;;;;;26.50;19.00;;;;;12.13;100.00;102235.91;5041772;28;68826;-73
2023/04/17 05:56:38;;;;;;;;;24.75;17.25;;;;;12.17;100.00;102227.22;5048538;28;68206;-76
2023/04/17 05:59:03;;;;;;;;;21.25;17.25;;;;;12.22;100.00;102230.88;5038405;28;45525;-76
2023/04/17 06:01:29;;;;;;;;;21.50;17.75;;;;;12.24;100.00;102220.31;5020457;28;45804;-75
2023/04/17 06:03:54;;;;;;;;;20.25;17.25;;;;;12.29;100.00;102226.63;5024636;28;46514;-78
2023/04/17 06:06:19;;;;;;;;;22.75;19.25;;;;;12.35;100.00;102224.13;5044242;28;61292;-73
2023/04/17 06:08:45;;;;;;;;;20.50;18.00;;;;;12.39;100.00;102228.66;5035944;28;62982;-74
2023/04/17 06:11:10;;;;;;;;;21.50;19.00;;;;;12.42;100.00;102222.56;5043360;28;45241;-76
2023/04/17 06:13:36;;;;;;;;;25.25;19.25;;;;;12.48;100.00;102236.88;5040759;28;46905;-72
2023/04/17 06:16:01;;;;;;;;;28.00;23.25;;;;;12.54;100.00;102231.72;5038813;28;48796;-73
2023/04/17 06:18:26;;;;;;;;;25.00;20.75;;;;;12.55;100.00;102227.31;5046363;28;45535;-74
2023/04/17 06:20:52;;;;;;;;;21.50;19.25;;;;;12.57;100.00;102234.47;5035507;28;45396;-74
2023/04/17 06:23:17;;;;;;;;;25.50;21.00;;;;;12.58;100.00;102227.41;5042919;28;68115;-74
2023/04/17 06:25:42;;;;;;;;;26.75;21.50;;;;;12.55;100.00;102233.50;5039148;28;67446;-73
2023/04/17 06:28:09;;;;;;;;;20.25;18.25;;;;;12.55;100.00;102232.59;5038340;28;45475;-73
2023/04/17 06:30:34;;;;;;;;;30.00;22.00;;;;;12.58;100.00;102236.25;5040263;28;45581;-76
2023/04/17 06:32:59;;;;;;;;;26.75;22.00;;;;;12.58;100.00;102238.88;5034176;28;45998;-75
2023/04/17 06:35:25;;;;;;;;;20.00;20.00;;;;;12.58;100.00;102238.88;5033655;28;65579;-75
2023/04/17 06:37:50;;;;;;;;;27.75;22.50;;;;;12.58;100.00;102241.53;5035023;28;45586;-77
2023/04/17 06:40:16;;;;;;;;;30.00;21.00;;;;;12.58;100.00;102246.84;5038860;28;45447;-76
2023/04/17 06:42:41;;;;;;;;;23.00;19.50;;;;;12.58;100.00;102243.28;5037268;28;47115;-74
2023/04/17 06:45:07;;;;;;;;;25.75;18.50;;;;;12.59;100.00;102245.97;5034399;28;69122;-73
2023/04/17 06:47:32;;;;;;;;;26.25;21.00;;;;;12.59;100.00;102253.03;5035265;28;45330;-72
2023/04/17 06:49:58;;;;;;;;;21.75;20.75;;;;;12.58;100.00;102262.75;5035762;28;59423;-72
2023/04/17 06:52:25;;;;;;;;;27.25;20.50;;;;;12.58;100.00;102260.09;5029949;28;46520;-74
2023/04/17 06:54:52;;;;;;;;;32.50;23.75;;;;;12.59;100.00;102259.22;5037559;28;45526;-76
2023/04/17 06:57:17;;;;;;;;;24.75;21.75;;;;;12.58;100.00;102259.19;5020000;28;45466;-73
2023/04/17 06:59:43;;;;;;;;;29.25;21.25;;;;;12.61;100.00;102263.66;5034214;28;61441;-73
2023/04/17 07:02:09;;;;;;;;;24.50;23.25;;;;;12.58;100.00;102252.13;5035375;28;46443;-75
2023/04/17 07:04:34;;;;;;;;;27.50;24.75;;;;;12.62;100.00;102262.78;5041025;28;45692;-75
2023/04/17 07:06:59;;;;;;;;;27.00;24.00;;;;;12.63;100.00;102267.28;5035653;28;60451;-74
2023/04/17 07:09:25;;;;;;;;;29.00;23.50;;;;;12.64;100.00;102259.34;5036313;28;49682;-75
2023/04/17 07:11:50;;;;;;;;;23.00;20.25;;;;;12.65;100.00;102265.53;5039565;28;46483;-73
2023/04/17 07:14:16;;;;;;;;;25.50;22.75;;;;;12.68;100.00;102262.97;5039493;28;58628;-72
2023/04/17 07:16:41;;;;;;;;;25.00;19.50;;;;;12.70;100.00;102269.22;5035767;28;45515;-73
2023/04/17 07:19:06;;;;;;;;;27.75;21.50;;;;;12.70;100.00;102267.44;5039377;28;62546;-73
2023/04/17 07:21:32;;;;;;;;;33.00;25.00;;;;;12.71;100.00;102266.59;5023897;28;65254;-72
2023/04/17 07:23:57;;;;;;;;;34.25;27.50;;;;;12.74;100.00;102273.72;5042803;28;46360;-72
2023/04/17 07:26:23;;;;;;;;;26.50;21.25;;;;;12.75;100.00;102275.53;5032887;28;51100;-71
2023/04/17 07:28:48;;;;;;;;;28.25;24.00;;;;;12.77;100.00;102268.50;5032426;28;45438;-74
2023/04/17 07:31:13;;;;;;;;;28.75;23.75;;;;;12.77;100.00;102279.97;5017704;28;47370;-73
2023/04/17 07:33:39;;;;;;;;;26.75;21.75;;;;;12.80;100.00;102277.44;5036852;28;70408;-70
2023/04/17 07:36:04;;;;;;;;;28.75;23.00;;;;;12.82;100.00;102286.31;5035517;28;50781;-71
2023/04/17 07:38:31;;;;;;;;;32.75;21.75;;;;;12.85;100.00;102296.09;5040020;28;45395;-73
2023/04/17 07:40:56;;;;;;;;;23.00;22.75;;;;;12.88;100.00;102289.97;5043373;28;47573;-72
2023/04/17 07:43:22;;;;;;;;;31.75;27.00;;;;;12.89;100.00;102284.72;5040552;28;59046;-72
2023/04/17 07:45:47;;;;;;;;;26.75;23.75;;;;;12.92;100.00;102279.47;5038136;28;63706;-72
2023/04/17 07:48:13;;;;;;;;;27.50;25.75;;;;;12.96;100.00;102291.06;5024080;28;45613;-71
2023/04/17 07:50:38;;;;;;;;;37.25;33.25;;;;;12.99;100.00;102293.78;5020736;28;47584;-76
2023/04/17 07:53:04;;;;;;;;;42.00;35.50;;;;;13.02;100.00;102293.84;5045123;28;45380;-76
2023/04/17 07:55:29;;;;;;;;;49.00;34.75;;;;;13.08;100.00;102296.66;5040308;28;62250;-72
2023/04/17 07:57:54;;;;;;;;;49.00;37.50;;;;;13.15;100.00;102292.38;5039614;28;45658;-72
2023/04/17 08:00:20;;;;;;;;;47.25;37.25;;;;;13.19;100.00;102295.16;5038116;28;46299;-72
2023/04/17 08:02:46;;;;;;;;;33.50;27.00;;;;;13.20;100.00;102293.41;5041215;28;45412;-73
2023/04/17 08:05:11;;;;;;;;;35.75;25.50;;;;;13.22;100.00;102287.31;5043704;28;45463;-72
2023/04/17 08:07:36;;;;;;;;;27.50;24.75;;;;;13.26;100.00;102291.84;5038014;28;45494;-72
2023/04/17 08:10:03;;;;;;;;;33.50;29.75;;;;;13.28;100.00;102294.53;5036683;28;45817;-72
2023/04/17 08:12:28;;;;;;;;;32.75;29.25;;;;;13.29;100.00;102285.69;5039339;28;45538;-72
2023/04/17 08:14:53;;;;;;;;;32.25;28.50;;;;;13.30;100.00;102282.19;5034891;28;46144;-72
2023/04/17 08:17:22;;;;;;;;;37.25;27.75;;;;;13.31;100.00;102286.63;5035655;28;63823;-73
2023/04/17 08:19:52;;;;;;;;;27.50;25.75;;;;;13.33;100.00;102282.25;5035469;28;46792;-73
2023/04/17 08:22:20;;;;;;;;;36.00;30.50;;;;;13.33;100.00;102282.25;5032730;28;45436;-72
2023/04/17 08:24:47;;;;;;;;;21.00;20.50;;;;;13.37;100.00;102292.09;5026291;28;45491;-73
2023/04/17 08:27:13;;;;;;;;;32.00;24.25;;;;;13.36;100.00;102288.50;5035594;28;45440;-74
2023/04/17 08:29:39;;;;;;;;;29.00;23.50;;;;;13.41;100.00;102287.72;5041110;28;47442;-73
2023/04/17 08:32:04;;;;;;;;;31.75;25.50;;;;;13.45;100.00;102293.13;5038610;28;45447;-74
2023/04/17 08:34:31;;;;;;;;;32.25;27.00;;;;;13.50;100.00;102290.59;5038802;28;45459;-71
2023/04/17 08:36:57;;;;;;;;;36.50;28.00;;;;;13.58;100.00;102284.59;5034628;28;45448;-73
2023/04/17 08:39:22;;;;;;;;;24.25;19.50;;;;;13.68;100.00;102290.97;5043216;28;46366;-72
2023/04/17 08:41:59;;;;;;;;;33.25;28.75;;;;;13.73;100.00;102288.44;5040535;28;49179;-73
2023/04/17 08:44:25;;;;;;;;;34.75;28.00;;;;;13.76;100.00;102286.75;5035316;28;45332;-72
2023/04/17 08:46:51;;;;;;;;;32.75;26.50;;;;;13.82;100.00;102280.66;5035927;28;45529;-72
2023/04/17 08:49:16;;;;;;;;;35.25;30.00;;;;;13.87;100.00;102285.22;5019214;28;46138;-71
2023/04/17 08:51:42;;;;;;;;;35.00;29.75;;;;;13.89;100.00;102279.91;5032172;28;45418;-72
2023/04/17 08:54:07;;;;;;;;;29.75;28.00;;;;;13.91;100.00;102278.22;5021996;28;45268;-72
2023/04/17 08:56:32;;;;;;;;;38.50;29.50;;;;;13.96;100.00;102283.63;5037194;28;60355;-72
2023/04/17 08:58:58;;;;;;;;;40.50;33.25;;;;;13.98;100.00;102288.09;5034566;28;67072;-71
2023/04/17 09:01:23;;;;;;;;;40.00;35.25;;;;;14.00;100.00;102282.78;5039632;28;49909;-73
2023/04/17 09:03:52;;;;;;;;;41.25;34.75;;;;;14.04;100.00;102282.00;5022316;28;45377;-72
2023/04/17 09:06:17;;;;;;;;;40.25;32.75;;;;;14.09;100.00;102283.88;5040086;28;45500;-75
2023/04/17 09:08:57;;;;;;;;;35.75;30.25;;;;;14.15;100.00;102280.44;5038701;28;45690;-74
2023/04/17 09:11:22;;;;;;;;;40.25;33.00;;;;;14.23;100.00;102285.94;5039291;28;45527;-73
2023/04/17 09:13:48;;;;;;;;;43.25;32.25;;;;;14.26;100.00;102285.97;5040775;28;45524;-75
2023/04/17 09:16:18;;;;;;;;;41.75;35.00;;;;;14.27;100.00;102287.75;5043343;28;45426;-75
2023/04/17 09:18:44;;;;;;;;;43.75;33.75;;;;;14.33;100.00;102279.94;5045135;28;45730;-72
2023/04/17 09:21:11;;;;;;;;;41.50;35.00;;;;;14.37;100.00;102293.28;5036006;28;45454;-73
2023/04/17 09:23:54;;;;;;;;;43.25;35.25;;;;;14.43;100.00;102284.50;5040558;28;45343;-72
2023/04/17 09:26:27;;;;;;;;;44.25;33.25;;;;;14.48;100.00;102284.63;5038408;28;45733;-72
2023/04/17 09:29:10;;;;;;;;;46.50;34.00;;;;;14.54;100.00;102285.66;5023110;28;48534;-72
2023/04/17 09:31:40;;;;;;;;;42.50;35.75;;;;;14.59;100.00;102286.63;5043221;28;45554;-72
2023/04/17 09:34:10;;;;;;;;;39.25;32.50;;;;;14.62;100.00;102284.03;5041950;28;45500;-74
2023/04/17 09:36:37;;;;;;;;;43.25;32.50;;;;;14.67;100.00;102285.00;5042330;28;45645;-73
2023/04/17 09:39:17;;;;;;;;;34.50;29.50;;;;;14.71;100.00;102279.75;5034847;28;46327;-73
2023/04/17 09:41:43;;;;;;;;;44.00;34.00;;;;;14.73;100.00;102284.22;5038742;28;45345;-74
2023/04/17 09:44:08;;;;;;;;;43.25;33.00;;;;;14.74;100.00;102280.69;5020358;28;55390;-73
2023/04/17 09:46:50;;;;;;;;;47.00;33.75;;;;;14.79;100.00;102286.06;5039983;28;45480;-73
2023/04/17 09:49:24;;;;;;;;;36.00;34.25;;;;;14.82;100.00;102276.41;5040554;28;46443;-72
2023/04/17 09:51:50;;;;;;;;;40.75;33.00;;;;;14.86;100.00;102283.56;5016797;28;45570;-73
2023/04/17 09:54:16;;;;;;;;;50.00;35.50;;;;;14.87;100.00;102287.13;5019726;28;45550;-73
2023/04/17 09:56:42;;;;;;;;;41.50;30.75;;;;;14.91;100.00;102284.53;5020161;28;45567;-73
2023/04/17 09:59:09;;;;;;;;;38.25;31.50;;;;;14.98;100.00;102279.31;5040855;28;46923;-73
2023/04/17 10:01:36;;;;;;;;;41.25;35.75;;;;;14.97;100.00;102278.41;5039553;28;45562;-72
2023/04/17 10:04:03;;;;;;;;;42.00;31.75;;;;;14.97;100.00;102277.50;5027440;28;45675;-72
2023/04/17 10:06:32;;;;;;;;;43.25;35.25;;;;;14.97;100.00;102273.09;5038319;28;45502;-72
2023/04/17 10:08:58;;;;;;;;;38.25;34.50;;;;;15.03;100.00;102282.94;5036424;28;46801;-75
2023/04/17 10:11:25;;;;;;;;;37.00;33.50;;;;;15.09;100.00;102286.59;5033624;28;45604;-74
2023/04/17 10:14:22;;;;;;;;;36.50;33.25;;;;;15.14;100.00;102290.22;5036156;28;45416;-75
2023/04/17 10:16:49;;;;;;;;;33.50;29.50;;;;;15.14;100.00;102289.31;5032722;28;45619;-78
2023/04/17 10:19:35;;;;;;;;;45.75;34.50;;;;;15.14;100.00;102281.34;5037158;28;46142;-73
2023/04/17 10:22:18;;;;;;;;;40.75;32.50;;;;;15.16;100.00;102284.91;5034567;28;45378;-75
2023/04/17 10:24:51;;;;;;;;;34.00;27.25;;;;;15.19;100.00;102282.31;5138416;22;45570;-76
2023/04/17 10:27:26;;;;;;;;;37.25;29.00;;;;;15.23;100.00;102285.88;5035721;28;45578;-78
2023/04/17 10:29:54;;;;;;;;;45.00;34.50;;;;;15.25;100.00;102281.50;5034399;28;46749;-74
2023/04/17 10:32:22;;;;;;;;;72.50;52.25;;;;;15.26;100.00;102277.97;5035082;28;45454;-80
2023/04/17 10:34:48;;;;;;;;;72.00;51.00;;;;;15.26;100.00;102278.84;5030882;28;45444;-75
2023/04/17 10:37:16;;;;;;;;;48.00;37.25;;;;;15.24;100.00;102277.06;5035916;28;45439;-73
2023/04/17 10:39:53;;;;;;;;;34.25;32.00;;;;;15.21;100.00;102280.56;5035176;28;46731;-83
2023/04/17 10:42:19;;;;;;;;;39.50;32.00;;;;;15.18;100.00;102277.88;5034707;28;45372;-84
2023/04/17 10:44:45;;;;;;;;;43.00;33.50;;;;;15.16;100.00;102267.19;5033996;28;45674;-80
2023/04/17 10:47:14;;;;;;;;;44.25;33.50;;;;;15.20;100.00;102277.00;5034965;28;45463;-81
2023/04/17 10:50:08;;;;;;;;;35.00;30.00;;;;;15.24;100.00;102271.75;5035176;28;46682;-79
2023/04/17 10:52:39;;;;;;;;;43.00;34.50;;;;;15.26;100.00;102260.22;5020888;28;45342;-78
2023/04/17 10:55:05;;;;;;;;;52.75;42.00;;;;;15.31;100.00;102260.28;5033345;28;45539;-79
2023/04/17 10:58:04;;;;;;;;;33.25;28.75;;;;;15.38;100.00;102264.81;5035460;28;45571;-81
2023/04/17 11:00:35;;;;;;;;;39.75;29.00;;;;;15.44;100.00;102262.25;5012607;28;46501;-79
2023/04/17 11:03:02;;;;;;;;;38.75;32.50;;;;;15.52;100.00;102263.25;5017689;28;45496;-78
2023/04/17 11:05:28;;;;;;;;;42.00;31.75;;;;;15.63;100.00;102266.09;5013346;28;45529;-78
2023/04/17 11:07:53;;;;;;;;;38.75;31.25;;;;;15.70;100.00;102258.19;5033222;28;45392;-77
2023/04/17 11:10:20;;;;;;;;;37.75;31.25;;;;;15.74;100.00;102251.16;5035193;28;46237;-76